Sparta, TN

1:36 PM CDT on September 22, 2014 (GMT -0500)
Tullahoma Regional-Northern | Change Station
CLOSE
Current Station
Airport
Location: Tullahoma,
Elevation: 1083 ft
Nearby Weather Stations

Elev 1083 ft 35.38 °N, 86.25 °W | Updated 21 minutes ago

Clear
Clear
70 °F
Feels Like 70 °F
N
14
Wind Variable Wind from NNE

Today
High -- | Low -- °F
--% Chance of Precip.
Yesterday
High -- | Low -- °F
Precip. -- in
6:29 AM 6:38 PM
Waning Crescent, 2% visible
Pressure 30.18 in
Visibility 10.0 miles
Clouds Clear
Dew Point 46 °F
Humidity 43%
Rainfall 0.00 in
Snow Depth Not available.
UV 8 out of 12
Pollen 6.60 out of 12
Air Quality Not available.
Flu Activity Not available.
METAR KTHA 221815Z AUTO 02012KT 340V050 10SM CLR 21/08 A3018 RMK

More Conditions Fewer Conditions

Pressure 30.18 in
Visibility 10.0 miles
Clouds Clear
Dew Point 46 °F
Humidity 43%
Rainfall 0.00 in
Snow Depth Not available.
UV 8 out of 12
Pollen 6.60 out of 12
Air Quality Not available.
Flu Activity Not available.
METAR KTHA 221815Z AUTO 02012KT 340V050 10SM CLR 21/08 A3018 RMK

More Conditions Fewer Conditions

10-Day Weather Forecast

Almanac

Astronomy

Sep. 22, 2014 Rise Set
Actual Time 6:29 AM CDT 6:38 PM CDT
Civil Twilight 6:04 AM CDT 7:04 PM CDT
Nautical Twilight 5:34 AM CDT 7:34 PM CDT
Astronomical Twilight 5:04 AM CDT 8:04 PM CDT
Moon 5:00 AM CDT 5:44 PM CDT
Length of Visible Light 13h 00m
Length of Day
12h 08m
Tomorrow will be 2m 16s shorter.
Waning Crescent, 2% of the Moon is Illuminated
Today
Waning Crescent
Sep 24
New
Oct 1
First Quarter
Oct 8
Full
Oct 15
Last Quarter

Today's Extremes

State Highs State Lows

Community

WunderPhotos

Upload Photos

1,755,507 photos uploaded!

WunderBlogs® & News

Nearby

Snow Depth

Station Depth Elevation
No new snow has been reported.

Earthquake Activity

City Distance Mag. Time & Date
Sweetwater, Tennessee 64 miles 2.5 2:54 PM CDT
2014-09-20
Minimum magnitude displayed is 2.5.

Coastal Water Temperatures

Place Temperature
No Stations Reporting

Nearby Weather Stations